createdAt,value
2024-01-10T00:06:06.955Z,337.50
2024-01-10T00:15:40.999Z,396.00
2024-01-10T00:18:47.016Z,391.30
2024-01-10T00:21:51.644Z,419.90
2024-01-10T00:24:57.395Z,413.20
2024-01-10T00:27:37.734Z,418.20
2024-01-10T00:30:06.591Z,389.70
2024-01-10T00:32:34.744Z,427.30
2024-01-10T00:35:04.243Z,398.60
2024-01-10T00:37:32.430Z,403.00
2024-01-10T00:40:00.447Z,393.10
2024-01-10T00:42:28.462Z,414.50
2024-01-10T00:44:56.447Z,403.00
2024-01-10T00:47:24.563Z,394.90
2024-01-10T00:49:52.554Z,375.20
2024-01-10T00:52:20.471Z,378.50
2024-01-10T00:54:48.449Z,366.10
2024-01-10T00:57:16.335Z,358.90
2024-01-10T00:59:44.239Z,366.00
2024-01-10T01:02:12.152Z,365.90
2024-01-10T01:04:40.208Z,377.40
2024-01-10T01:07:08.346Z,375.30
2024-01-10T01:09:36.505Z,391.90
2024-01-10T01:12:04.874Z,377.00
2024-01-10T01:14:32.925Z,384.70
2024-01-10T01:17:00.944Z,357.00
2024-01-10T01:19:28.892Z,347.90
2024-01-10T01:21:56.768Z,344.50
2024-01-10T01:24:24.678Z,331.80
2024-01-10T01:26:53.599Z,337.30
2024-01-10T01:29:22.006Z,569.10
2024-01-10T01:31:51.106Z,492.40
2024-01-10T01:34:19.289Z,406.30
2024-01-10T01:36:47.600Z,406.80
2024-01-10T01:39:15.617Z,401.70
2024-01-10T01:41:43.761Z,374.60
2024-01-10T01:44:11.955Z,366.20
2024-01-10T01:46:42.238Z,355.00
2024-01-10T01:49:12.213Z,347.80
2024-01-10T01:51:41.384Z,366.70
2024-01-10T01:54:10.346Z,369.10
2024-01-10T01:56:39.700Z,370.90
2024-01-10T01:59:08.132Z,397.20
2024-01-10T02:01:37.383Z,368.40
2024-01-10T02:07:44.038Z,389.70
2024-01-10T02:10:13.270Z,360.30
2024-01-10T02:12:41.320Z,375.80
2024-01-10T02:15:09.683Z,346.10
2024-01-10T02:17:37.692Z,379.00
2024-01-10T02:20:13.842Z,389.90
2024-01-10T02:22:41.897Z,375.20
2024-01-10T02:25:11.402Z,374.20
2024-01-10T02:27:40.828Z,367.80
2024-01-10T02:30:10.148Z,366.10
2024-01-10T02:32:38.615Z,360.60
2024-01-10T02:35:07.416Z,350.90
2024-01-10T02:37:35.505Z,361.40
2024-01-10T02:40:03.762Z,347.20
2024-01-10T02:42:32.941Z,347.90
2024-01-10T02:45:01.022Z,334.00
2024-01-10T02:47:30.574Z,343.20
2024-01-10T02:49:58.689Z,333.10
2024-01-10T02:52:26.928Z,342.30
2024-01-10T02:54:54.819Z,327.00
2024-01-10T02:57:23.332Z,317.70
2024-01-10T02:59:51.245Z,329.30
2024-01-10T03:02:19.315Z,335.60
2024-01-10T03:04:47.474Z,353.20
2024-01-10T03:07:15.825Z,328.50
2024-01-10T03:09:44.670Z,314.50
2024-01-10T03:12:13.261Z,297.60
2024-01-10T03:14:41.476Z,295.20
2024-01-10T03:17:09.476Z,302.20
2024-01-10T03:19:43.719Z,292.30
2024-01-10T03:22:15.112Z,295.10
2024-01-10T03:24:42.950Z,291.50
2024-01-10T03:27:11.114Z,259.60
2024-01-10T03:29:39.459Z,253.20
2024-01-10T03:32:07.856Z,285.50
2024-01-10T03:34:36.646Z,344.70
2024-01-10T03:37:04.896Z,355.30
2024-01-10T03:39:32.956Z,387.30
2024-01-10T03:42:00.923Z,392.40
2024-01-10T03:44:28.922Z,401.30
2024-01-10T03:46:56.910Z,346.80
2024-01-10T03:49:24.975Z,349.10
2024-01-10T03:51:52.853Z,329.60
2024-01-10T03:54:20.864Z,331.30
2024-01-10T03:56:48.683Z,274.50
2024-01-10T03:59:16.610Z,307.70
2024-01-10T04:01:44.791Z,290.40
2024-01-10T04:04:12.855Z,293.50
2024-01-10T04:06:40.868Z,298.90
2024-01-10T04:09:11.068Z,303.20
2024-01-10T04:11:39.037Z,309.70
2024-01-10T04:14:07.673Z,311.00
2024-01-10T04:16:35.721Z,295.00
2024-01-10T04:19:03.847Z,257.70
2024-01-10T04:21:32.540Z,271.70
2024-01-10T04:24:01.148Z,286.00
2024-01-10T04:26:28.920Z,304.80
2024-01-10T04:28:56.836Z,312.90
2024-01-10T04:31:24.953Z,295.10
2024-01-10T04:33:53.160Z,312.20
2024-01-10T04:36:21.023Z,361.10
2024-01-10T04:38:49.476Z,339.30
2024-01-10T04:41:17.838Z,316.80
2024-01-10T04:43:46.153Z,335.70
2024-01-10T04:46:14.503Z,320.60
2024-01-10T04:48:42.662Z,297.40
2024-01-10T04:51:10.676Z,280.90
2024-01-10T04:53:38.621Z,304.30
2024-01-10T04:56:07.201Z,287.50
2024-01-10T04:58:36.335Z,294.60
2024-01-10T05:01:05.746Z,307.00
2024-01-10T05:03:33.923Z,308.30
2024-01-10T05:06:02.153Z,302.80
2024-01-10T05:08:30.457Z,308.30
2024-01-10T05:10:58.786Z,306.20
2024-01-10T05:13:26.993Z,298.40
2024-01-10T05:15:55.731Z,307.20
2024-01-10T05:18:23.856Z,308.40
2024-01-10T05:20:51.803Z,261.80
2024-01-10T05:23:20.053Z,290.90
2024-01-10T05:25:48.230Z,284.20
2024-01-10T05:28:16.849Z,285.70
2024-01-10T05:30:45.215Z,266.50
2024-01-10T05:33:13.206Z,255.50
2024-01-10T05:35:41.399Z,268.00
2024-01-10T05:38:09.703Z,267.80
2024-01-10T05:40:37.628Z,260.60
2024-01-10T05:43:05.571Z,270.10
2024-01-10T05:45:34.591Z,263.00
2024-01-10T05:48:02.667Z,276.90
2024-01-10T05:50:31.299Z,259.20
2024-01-10T05:52:59.351Z,278.30
2024-01-10T05:55:27.424Z,262.20
2024-01-10T05:57:55.353Z,289.00
2024-01-10T06:00:23.357Z,274.90
2024-01-10T06:02:51.328Z,282.10
2024-01-10T06:05:19.375Z,270.90
2024-01-10T06:07:47.440Z,268.30
2024-01-10T06:10:15.980Z,272.90
2024-01-10T06:12:43.904Z,265.20
2024-01-10T06:15:11.786Z,270.30
2024-01-10T06:17:40.102Z,251.50
2024-01-10T06:20:08.864Z,284.10
2024-01-10T06:22:37.042Z,297.50
2024-01-10T06:25:05.689Z,303.40
2024-01-10T06:27:33.689Z,326.90
2024-01-10T06:30:01.698Z,339.30
2024-01-10T06:32:29.758Z,373.50
2024-01-10T06:34:57.950Z,446.20
2024-01-10T06:37:25.801Z,429.80
2024-01-10T06:39:53.705Z,402.60
2024-01-10T06:42:21.684Z,389.60
2024-01-10T06:44:49.644Z,353.90
2024-01-10T06:47:18.132Z,389.20
2024-01-10T06:49:46.262Z,419.50
2024-01-10T06:52:14.202Z,416.90
2024-01-10T06:54:42.220Z,424.90
2024-01-10T06:57:10.118Z,378.50
2024-01-10T06:59:38.482Z,380.20
2024-01-10T07:02:06.800Z,380.70
2024-01-10T07:04:38.593Z,354.50
2024-01-10T07:07:07.091Z,368.60
2024-01-10T07:09:35.127Z,409.40
2024-01-10T07:12:05.426Z,405.30
2024-01-10T07:14:33.432Z,417.20
2024-01-10T07:17:01.870Z,401.60
2024-01-10T07:19:30.181Z,420.90
2024-01-10T07:21:58.066Z,418.30
2024-01-10T07:24:25.859Z,418.10
2024-01-10T07:26:53.787Z,410.50
2024-01-10T07:29:22.289Z,388.20
2024-01-10T07:31:53.664Z,378.60
2024-01-10T07:34:22.659Z,388.80
2024-01-10T07:36:50.512Z,378.30
2024-01-10T07:39:21.929Z,386.90
2024-01-10T07:41:51.170Z,387.80
2024-01-10T07:44:19.113Z,401.60
2024-01-10T07:46:47.113Z,385.60
2024-01-10T07:49:18.042Z,393.60
2024-01-10T07:51:46.625Z,405.00
2024-01-10T07:54:14.626Z,400.10
2024-01-10T07:56:42.877Z,398.60
2024-01-10T07:59:10.829Z,402.30
2024-01-10T08:01:38.731Z,379.10
2024-01-10T08:04:06.686Z,406.10
2024-01-10T08:06:34.593Z,399.70
2024-01-10T08:09:05.717Z,377.50
2024-01-10T08:11:36.026Z,382.60
2024-01-10T08:14:04.213Z,394.20
2024-01-10T08:16:33.641Z,375.50
2024-01-10T08:19:02.053Z,359.20
2024-01-10T08:21:30.182Z,306.60
2024-01-10T08:23:58.993Z,285.70
2024-01-10T08:26:28.160Z,286.90
2024-01-10T08:28:56.655Z,281.50
2024-01-10T08:31:24.771Z,259.40
2024-01-10T08:33:52.779Z,378.40
2024-01-10T08:36:20.809Z,276.50
2024-01-10T08:38:50.001Z,284.60
2024-01-10T08:41:18.427Z,257.80
2024-01-10T08:43:48.118Z,258.90
2024-01-10T08:46:16.092Z,268.20
2024-01-10T08:48:44.592Z,255.00
2024-01-10T08:51:13.936Z,257.50
2024-01-10T08:53:41.837Z,271.30
2024-01-10T08:56:09.772Z,255.80
2024-01-10T08:58:38.572Z,249.20
2024-01-10T09:01:06.594Z,246.80
2024-01-10T09:03:34.653Z,258.60
2024-01-10T09:06:08.453Z,261.40
2024-01-10T09:08:40.857Z,281.60
2024-01-10T09:11:09.058Z,306.30
2024-01-10T09:13:39.482Z,275.10
2024-01-10T09:16:07.919Z,256.40
2024-01-10T09:18:36.015Z,259.70
2024-01-10T09:21:05.720Z,297.90
2024-01-10T09:23:33.844Z,304.30
2024-01-10T09:26:01.842Z,317.80
2024-01-10T09:28:29.845Z,304.90
2024-01-10T09:30:57.982Z,306.60
2024-01-10T09:33:26.493Z,298.60
2024-01-10T09:35:54.523Z,302.40
2024-01-10T09:38:22.482Z,273.00
2024-01-10T09:40:51.104Z,267.20
2024-01-10T09:43:19.058Z,260.30
2024-01-10T09:45:49.682Z,245.00
2024-01-10T09:48:17.821Z,251.90
2024-01-10T09:50:50.954Z,212.80
2024-01-10T09:53:28.163Z,238.50
2024-01-10T09:56:01.177Z,201.40
2024-01-10T09:58:29.350Z,209.10
2024-01-10T10:00:57.267Z,201.80
2024-01-10T10:03:25.366Z,198.40
2024-01-10T10:05:53.519Z,191.20
2024-01-10T10:08:24.102Z,218.50
2024-01-10T10:10:52.438Z,196.90
2024-01-10T10:13:28.269Z,210.70
2024-01-10T10:16:03.670Z,222.80
2024-01-10T10:18:33.716Z,216.40
2024-01-10T10:21:10.308Z,369.00
2024-01-10T10:23:43.320Z,352.50
2024-01-10T10:26:15.053Z,307.10
2024-01-10T10:28:43.491Z,245.50
2024-01-10T10:31:12.907Z,221.80
2024-01-10T10:33:41.700Z,338.20
2024-01-10T10:36:09.796Z,369.20
2024-01-10T10:38:39.210Z,419.50
2024-01-10T10:41:11.993Z,299.90
2024-01-10T10:43:41.325Z,239.50
2024-01-10T10:46:11.238Z,280.50
2024-01-10T10:48:39.932Z,247.00
2024-01-10T10:51:23.534Z,239.20
2024-01-10T10:53:52.014Z,254.00
2024-01-10T10:56:20.627Z,254.10
2024-01-10T10:58:50.396Z,246.00
2024-01-10T11:01:18.914Z,243.20
2024-01-10T11:03:48.875Z,246.00
2024-01-10T11:06:19.789Z,224.70
2024-01-10T11:08:53.329Z,238.00
2024-01-10T11:11:56.958Z,212.40
2024-01-10T11:15:11.023Z,222.00
2024-01-10T11:18:23.299Z,231.00
2024-01-10T11:21:10.293Z,259.50
2024-01-10T11:23:49.765Z,274.60
2024-01-10T11:26:18.152Z,259.10
2024-01-10T11:28:46.894Z,251.50
2024-01-10T11:31:19.295Z,247.50
2024-01-10T11:33:51.082Z,200.30
2024-01-10T11:36:20.704Z,328.80
2024-01-10T11:39:04.190Z,238.30
2024-01-10T11:41:41.558Z,207.40
2024-01-10T11:44:09.713Z,215.60
2024-01-10T11:46:44.769Z,205.20
2024-01-10T11:49:16.643Z,197.90
2024-01-10T11:51:49.719Z,192.40
2024-01-10T11:54:37.018Z,198.50
2024-01-10T11:57:10.289Z,185.00
2024-01-10T11:59:40.525Z,184.80
2024-01-10T12:02:09.679Z,191.20
2024-01-10T12:04:46.015Z,193.10
2024-01-10T12:07:21.225Z,196.40
2024-01-10T12:09:49.684Z,179.00
2024-01-10T12:12:18.218Z,170.60
2024-01-10T12:14:47.431Z,179.40
2024-01-10T12:17:16.080Z,181.30
2024-01-10T12:19:47.129Z,179.00
2024-01-10T12:22:19.179Z,179.90
2024-01-10T12:24:51.520Z,170.70
2024-01-10T12:27:22.470Z,179.10
2024-01-10T12:29:52.679Z,178.80
2024-01-10T12:32:24.893Z,166.40
2024-01-10T12:35:05.341Z,164.60
2024-01-10T12:37:33.573Z,171.50
2024-01-10T12:40:03.035Z,163.50
2024-01-10T12:42:32.224Z,160.00
2024-01-10T12:45:01.635Z,159.20
2024-01-10T12:47:29.934Z,165.80
2024-01-10T12:49:58.318Z,148.40
2024-01-10T12:52:26.631Z,154.90
2024-01-10T12:54:55.114Z,156.40
2024-01-10T12:57:25.079Z,143.80
2024-01-10T12:59:53.393Z,131.50
2024-01-10T13:02:21.559Z,132.00
2024-01-10T13:04:49.629Z,135.90
2024-01-10T13:07:17.513Z,145.60
2024-01-10T13:09:45.427Z,150.30
2024-01-10T13:12:13.462Z,142.70
2024-01-10T13:14:42.990Z,142.90
2024-01-10T13:17:10.977Z,148.10
2024-01-10T13:19:39.109Z,132.90
2024-01-10T13:22:08.924Z,128.50
2024-01-10T13:24:37.659Z,128.10
2024-01-10T13:27:06.119Z,148.40
2024-01-10T13:29:36.021Z,148.80
2024-01-10T13:32:06.062Z,151.60
2024-01-10T13:34:33.983Z,162.20
2024-01-10T13:37:03.492Z,169.50
2024-01-10T13:39:31.612Z,146.00
2024-01-10T13:41:59.838Z,150.70
2024-01-10T13:44:28.075Z,225.50
2024-01-10T13:46:57.870Z,279.40
2024-01-10T13:49:26.181Z,298.60
2024-01-10T13:51:54.441Z,108.70
2024-01-10T13:54:23.236Z,120.50
2024-01-10T13:56:51.432Z,252.70
2024-01-10T13:59:20.053Z,249.90
2024-01-10T14:01:49.010Z,328.60
2024-01-10T14:04:17.146Z,236.40
2024-01-10T14:06:45.226Z,144.40
2024-01-10T14:09:13.800Z,405.20
2024-01-10T14:11:41.990Z,301.40
2024-01-10T14:14:09.899Z,178.20
2024-01-10T14:16:38.147Z,159.70
2024-01-10T14:19:06.386Z,116.40
2024-01-10T14:21:34.582Z,161.20
2024-01-10T14:24:03.250Z,396.70
2024-01-10T14:26:31.542Z,346.00
2024-01-10T14:29:00.817Z,227.90
2024-01-10T14:31:38.293Z,174.60
2024-01-10T14:34:17.745Z,110.60
2024-01-10T14:36:45.972Z,112.80
2024-01-10T14:39:14.216Z,109.30
2024-01-10T14:41:42.658Z,105.00
2024-01-10T14:44:11.585Z,104.30
2024-01-10T14:46:39.883Z,125.00
2024-01-10T14:49:07.992Z,132.10
2024-01-10T14:51:36.156Z,136.00
2024-01-10T14:54:05.037Z,129.50
2024-01-10T14:56:33.257Z,126.20
2024-01-10T14:59:01.641Z,277.70
2024-01-10T15:01:29.791Z,145.60
2024-01-10T15:03:58.566Z,128.30
2024-01-10T15:06:27.005Z,117.70
2024-01-10T15:08:55.213Z,116.90
2024-01-10T15:11:23.707Z,115.90
2024-01-10T15:13:51.855Z,113.60
2024-01-10T15:16:21.658Z,111.00
2024-01-10T15:18:50.191Z,100.90
2024-01-10T15:21:20.573Z,108.50
2024-01-10T15:23:48.575Z,115.70
2024-01-10T15:26:19.324Z,109.10
2024-01-10T15:28:49.678Z,111.50
2024-01-10T15:31:21.186Z,100.90
2024-01-10T15:33:49.722Z,108.70
2024-01-10T15:36:17.841Z,114.40
2024-01-10T15:38:45.812Z,105.10
2024-01-10T15:41:13.932Z,106.20
2024-01-10T15:43:42.099Z,110.40
2024-01-10T15:46:10.300Z,102.20
2024-01-10T15:48:38.868Z,129.50
2024-01-10T15:51:07.225Z,127.80
2024-01-10T15:53:36.312Z,128.60
2024-01-10T15:56:06.299Z,174.70
2024-01-10T15:58:36.142Z,261.00
2024-01-10T16:01:04.915Z,273.40
2024-01-10T16:03:36.018Z,285.70
2024-01-10T16:06:05.188Z,322.10
2024-01-10T16:08:34.821Z,287.40
2024-01-10T16:11:03.711Z,308.50
2024-01-10T16:13:32.774Z,294.50
2024-01-10T16:16:04.204Z,243.50
2024-01-10T16:18:32.665Z,243.00
2024-01-10T16:21:01.890Z,237.90
2024-01-10T16:23:31.450Z,230.70
2024-01-10T16:26:00.492Z,230.10
2024-01-10T16:28:29.989Z,219.40
2024-01-10T16:31:00.317Z,224.20
2024-01-10T16:33:30.382Z,218.00
2024-01-10T16:35:59.211Z,229.70
2024-01-10T16:38:28.648Z,204.10
2024-01-10T16:40:57.243Z,241.60
2024-01-10T16:43:28.468Z,299.80
2024-01-10T16:46:01.215Z,293.00
2024-01-10T16:48:30.558Z,245.00
2024-01-10T16:51:01.082Z,263.50
2024-01-10T16:53:31.363Z,264.80
2024-01-10T16:56:00.566Z,258.00
2024-01-10T16:58:29.500Z,268.50
2024-01-10T17:01:01.466Z,304.80
2024-01-10T17:03:32.617Z,286.10
2024-01-10T17:06:06.082Z,300.60
2024-01-10T17:08:37.953Z,253.80
2024-01-10T17:11:08.905Z,273.50
2024-01-10T17:13:37.576Z,281.60
2024-01-10T17:16:08.058Z,259.30
2024-01-10T17:18:40.974Z,275.80
2024-01-10T17:21:11.714Z,261.50
2024-01-10T17:23:44.952Z,277.70
2024-01-10T17:26:16.150Z,293.10
2024-01-10T17:28:51.849Z,261.80
2024-01-10T17:31:21.407Z,275.60
2024-01-10T17:33:53.653Z,296.50
2024-01-10T17:36:24.982Z,301.90
2024-01-10T17:39:00.026Z,327.00
2024-01-10T17:41:30.616Z,385.20
2024-01-10T17:44:01.259Z,374.50
2024-01-10T17:46:37.690Z,304.90
2024-01-10T17:49:12.020Z,285.10
2024-01-10T17:51:42.281Z,276.20
2024-01-10T17:54:13.805Z,253.60
2024-01-10T17:56:44.940Z,285.40
2024-01-10T17:59:17.329Z,367.10
2024-01-10T18:01:51.497Z,346.90
2024-01-10T18:04:21.096Z,392.50
2024-01-10T18:06:52.249Z,431.40
2024-01-10T18:09:29.201Z,382.40
2024-01-10T18:12:02.313Z,382.60
2024-01-10T18:14:40.737Z,316.80
2024-01-10T18:17:15.441Z,342.20
2024-01-10T18:19:46.693Z,344.90
2024-01-10T18:22:21.298Z,395.60
2024-01-10T18:24:52.684Z,412.20
2024-01-10T18:27:21.807Z,328.40
2024-01-10T18:29:54.311Z,319.40
2024-01-10T18:35:03.423Z,342.00
2024-01-10T18:37:37.705Z,406.40
2024-01-10T18:41:05.492Z,382.50
2024-01-10T18:43:51.313Z,376.40
2024-01-10T18:46:41.049Z,381.70
2024-01-10T18:49:30.850Z,355.70
2024-01-10T18:52:21.635Z,438.90
2024-01-10T18:54:59.886Z,620.00
2024-01-10T18:57:40.059Z,830.00
2024-01-10T19:00:27.084Z,590.80
2024-01-10T19:03:13.918Z,517.90
2024-01-10T19:05:56.957Z,456.80
2024-01-10T19:08:43.508Z,396.50
2024-01-10T19:11:27.070Z,430.70
2024-01-10T19:14:15.594Z,430.60
2024-01-10T19:16:53.865Z,438.30
2024-01-10T19:19:32.013Z,463.60
2024-01-10T19:22:24.042Z,495.10
2024-01-10T19:25:06.000Z,485.50
2024-01-10T19:27:48.627Z,446.10
2024-01-10T19:33:17.283Z,483.80
2024-01-10T19:36:03.404Z,394.70
2024-01-10T19:38:42.276Z,483.30
2024-01-10T19:41:29.647Z,456.50
2024-01-10T19:46:49.928Z,460.30
2024-01-10T19:49:35.906Z,463.40
2024-01-10T19:52:18.922Z,466.60
2024-01-10T19:55:09.809Z,457.60
2024-01-10T19:57:51.839Z,456.20
2024-01-10T20:00:29.688Z,455.50
2024-01-10T20:03:10.587Z,452.10
2024-01-10T20:05:52.040Z,483.80
2024-01-10T20:08:31.590Z,479.10
2024-01-10T20:11:18.662Z,446.60
2024-01-10T20:13:56.045Z,464.90
2024-01-10T20:16:37.778Z,424.80
2024-01-10T20:19:20.081Z,418.70
2024-01-10T20:21:57.685Z,391.80
2024-01-10T20:24:40.116Z,364.90
2024-01-10T20:27:23.974Z,355.20
2024-01-10T20:30:05.822Z,371.10
2024-01-10T20:33:00.145Z,387.90
2024-01-10T20:35:38.962Z,371.30
2024-01-10T20:38:20.378Z,370.50
2024-01-10T20:40:55.804Z,392.80
2024-01-10T20:43:30.266Z,394.00
2024-01-10T20:46:04.262Z,405.80
2024-01-10T20:48:38.446Z,443.20
2024-01-10T20:51:21.604Z,467.70
2024-01-10T20:54:06.534Z,565.50
2024-01-10T20:56:39.488Z,564.10
2024-01-10T20:59:12.150Z,560.80
2024-01-10T21:01:44.970Z,562.60
2024-01-10T21:04:17.365Z,586.20
2024-01-10T21:07:07.858Z,572.90
2024-01-10T21:09:45.903Z,568.20
2024-01-10T21:12:18.456Z,567.90
2024-01-10T21:14:52.247Z,559.10
2024-01-10T21:17:26.708Z,606.40
2024-01-10T21:19:59.512Z,565.70
2024-01-10T21:22:31.877Z,533.80
2024-01-10T21:25:05.002Z,530.90
2024-01-10T21:27:37.351Z,518.90
2024-01-10T21:30:11.803Z,530.50
2024-01-10T21:32:43.811Z,569.50
2024-01-10T21:35:16.233Z,794.20
2024-01-10T21:37:48.983Z,891.10
2024-01-10T21:40:21.646Z,722.90
2024-01-10T21:42:53.637Z,691.40
2024-01-10T21:45:26.082Z,764.90
2024-01-10T21:47:58.405Z,681.20
2024-01-10T21:50:30.532Z,575.40
2024-01-10T21:53:03.030Z,518.10
2024-01-10T21:55:36.189Z,484.00
2024-01-10T21:58:08.288Z,467.60
2024-01-10T22:00:40.155Z,519.20
2024-01-10T22:03:21.374Z,464.30
2024-01-10T22:06:00.452Z,546.30
2024-01-10T22:08:33.087Z,498.30
2024-01-10T22:11:05.154Z,553.20
2024-01-10T22:13:37.220Z,493.10
2024-01-10T22:16:09.850Z,495.20
2024-01-10T22:18:42.164Z,449.30
2024-01-10T22:21:13.956Z,495.30
2024-01-10T22:23:46.133Z,444.00
2024-01-10T22:26:18.201Z,448.70
2024-01-10T22:28:50.107Z,464.80
2024-01-10T22:31:22.029Z,476.70
2024-01-10T22:33:54.172Z,465.00
2024-01-10T22:36:26.651Z,393.50
2024-01-10T22:38:58.520Z,380.60
2024-01-10T22:41:30.493Z,386.40
2024-01-10T22:44:02.584Z,654.80
2024-01-10T22:46:34.531Z,441.30
2024-01-10T22:49:06.436Z,394.10
2024-01-10T22:51:38.536Z,366.00
2024-01-10T22:54:11.486Z,393.30
2024-01-10T22:56:44.077Z,402.60
2024-01-10T22:59:15.996Z,506.30
2024-01-10T23:01:47.805Z,797.40
2024-01-10T23:04:19.576Z,726.10
2024-01-10T23:06:51.330Z,366.40
2024-01-10T23:09:23.187Z,273.00
2024-01-10T23:11:55.910Z,491.20
2024-01-10T23:14:27.886Z,402.10
2024-01-10T23:16:59.739Z,211.50
2024-01-10T23:19:31.829Z,168.70
2024-01-10T23:22:03.683Z,230.30
2024-01-10T23:24:35.756Z,951.70
2024-01-10T23:27:08.294Z,577.50
2024-01-10T23:29:41.588Z,188.60
2024-01-10T23:32:13.483Z,1010.40
2024-01-10T23:34:48.446Z,606.30
2024-01-10T23:37:20.659Z,978.20
2024-01-10T23:39:52.617Z,1201.60
2024-01-10T23:42:24.714Z,304.20
2024-01-10T23:44:57.480Z,479.50
2024-01-10T23:47:29.535Z,776.20
2024-01-10T23:50:01.605Z,581.70
2024-01-10T23:52:33.874Z,568.10
2024-01-10T23:55:06.548Z,553.70
2024-01-10T23:57:38.424Z,141.50
